createdAt,value
2022-07-28T00:01:25.043Z,100.00
2022-07-28T00:04:11.991Z,100.00
2022-07-28T00:06:45.981Z,100.00
2022-07-28T00:09:32.774Z,100.00
2022-07-28T00:12:05.870Z,100.00
2022-07-28T00:14:52.775Z,100.00
2022-07-28T00:17:26.032Z,100.00
2022-07-28T00:20:20.796Z,100.00
2022-07-28T00:23:14.893Z,100.00
2022-07-28T00:26:01.805Z,100.00
2022-07-28T00:28:35.197Z,100.00
2022-07-28T00:31:21.884Z,100.00
2022-07-28T00:33:54.877Z,100.00
2022-07-28T00:36:41.804Z,100.00
2022-07-28T00:39:21.829Z,100.00
2022-07-28T00:42:08.800Z,100.00
2022-07-28T00:44:48.819Z,100.00
2022-07-28T00:47:42.794Z,100.00
2022-07-28T00:50:36.830Z,100.00
2022-07-28T00:53:30.824Z,100.00
2022-07-28T00:56:17.880Z,100.00
2022-07-28T00:58:50.929Z,100.00
2022-07-28T01:01:37.895Z,100.00
2022-07-28T01:04:12.158Z,100.00
2022-07-28T01:07:13.826Z,100.00
2022-07-28T01:10:05.918Z,100.00
2022-07-28T01:13:02.822Z,100.00
2022-07-28T01:15:44.031Z,100.00
2022-07-28T01:18:38.885Z,100.00
2022-07-28T01:21:24.831Z,100.00
2022-07-28T01:24:40.869Z,100.00
2022-07-28T01:27:48.815Z,100.00
2022-07-28T01:30:59.915Z,100.00
2022-07-28T01:33:51.934Z,100.00
2022-07-28T01:36:43.902Z,100.00
2022-07-28T01:39:18.971Z,100.00
2022-07-28T01:42:08.848Z,100.00
2022-07-28T01:44:48.033Z,100.00
2022-07-28T01:47:39.824Z,100.00
2022-07-28T01:50:23.864Z,100.00
2022-07-28T01:53:19.027Z,100.00
2022-07-28T01:56:16.900Z,100.00
2022-07-28T01:59:13.862Z,100.00
2022-07-28T02:02:01.942Z,100.00
2022-07-28T02:04:44.935Z,100.00
2022-07-28T02:07:33.874Z,100.00
2022-07-28T02:10:08.959Z,100.00
2022-07-28T02:12:57.859Z,100.00
2022-07-28T02:15:35.029Z,100.00
2022-07-28T02:18:21.841Z,100.00
2022-07-28T02:20:55.941Z,100.00
2022-07-28T02:23:45.929Z,100.00
2022-07-28T02:26:28.874Z,100.00
2022-07-28T02:29:47.979Z,100.00
2022-07-28T02:32:28.114Z,100.00
2022-07-28T02:35:27.914Z,100.00
2022-07-28T02:38:35.886Z,100.00
2022-07-28T02:41:31.900Z,100.00
2022-07-28T02:44:15.398Z,100.00
2022-07-28T02:47:05.898Z,100.00
2022-07-28T02:49:48.878Z,100.00
2022-07-28T02:52:36.875Z,100.00
2022-07-28T02:55:10.976Z,100.00
2022-07-28T02:57:57.875Z,100.00
2022-07-28T03:00:31.973Z,100.00
2022-07-28T03:03:18.867Z,100.00
2022-07-28T03:05:53.015Z,100.00
2022-07-28T03:08:39.872Z,100.00
2022-07-28T03:11:24.942Z,100.00
2022-07-28T03:14:12.218Z,100.00
2022-07-28T03:16:46.015Z,100.00
2022-07-28T03:19:39.900Z,100.00
2022-07-28T03:22:26.934Z,100.00
2022-07-28T03:25:09.897Z,100.00
2022-07-28T03:28:05.896Z,100.00
2022-07-28T03:31:00.957Z,100.00
2022-07-28T03:33:35.048Z,100.00
2022-07-28T03:36:25.897Z,100.00
2022-07-28T03:39:11.796Z,100.00
2022-07-28T03:41:59.902Z,100.00
2022-07-28T03:44:34.035Z,100.00
2022-07-28T03:47:21.905Z,100.00
2022-07-28T03:49:55.015Z,100.00
2022-07-28T03:52:41.903Z,100.00
2022-07-28T03:55:16.020Z,100.00
2022-07-28T03:58:05.915Z,100.00
2022-07-28T04:00:38.998Z,100.00
2022-07-28T04:03:36.609Z,100.00
2022-07-28T04:06:19.173Z,100.00
2022-07-28T04:09:05.917Z,100.00
2022-07-28T04:11:39.038Z,100.00
2022-07-28T04:14:26.924Z,100.00
2022-07-28T04:17:00.138Z,100.00
2022-07-28T04:19:54.001Z,100.00
2022-07-28T04:22:47.928Z,100.00
2022-07-28T04:25:41.933Z,100.00
2022-07-28T04:28:35.925Z,100.00
2022-07-28T04:31:22.967Z,100.00
2022-07-28T04:33:56.196Z,100.00
2022-07-28T04:36:48.908Z,100.00
2022-07-28T04:39:22.007Z,100.00
2022-07-28T04:42:08.930Z,100.00
2022-07-28T04:44:42.518Z,100.00
2022-07-28T04:47:29.932Z,100.00
2022-07-28T04:50:04.042Z,100.00
2022-07-28T04:52:50.955Z,100.00
2022-07-28T04:55:25.019Z,100.00
2022-07-28T04:58:12.947Z,100.00
2022-07-28T05:00:46.095Z,100.00
2022-07-28T05:03:36.330Z,100.00
2022-07-28T05:06:16.979Z,100.00
2022-07-28T05:09:10.944Z,100.00
2022-07-28T05:11:57.948Z,100.00
2022-07-28T05:14:38.933Z,100.00
2022-07-28T05:17:32.983Z,100.00
2022-07-28T05:20:26.975Z,100.00
2022-07-28T05:23:21.966Z,100.00
2022-07-28T05:26:15.980Z,100.00
2022-07-28T05:29:09.975Z,100.00
2022-07-28T05:32:16.559Z,100.00
2022-07-28T05:35:05.961Z,100.00
2022-07-28T05:37:43.924Z,100.00
2022-07-28T05:40:30.954Z,100.00
2022-07-28T05:43:04.054Z,100.00
2022-07-28T05:45:51.050Z,100.00
2022-07-28T05:48:33.020Z,100.00
2022-07-28T05:51:26.973Z,100.00
2022-07-28T05:54:14.250Z,100.00
2022-07-28T05:56:54.973Z,100.00
2022-07-28T05:59:48.963Z,100.00
2022-07-28T06:02:43.150Z,100.00
2022-07-28T06:05:29.999Z,100.00
2022-07-28T06:08:04.061Z,100.00
2022-07-28T06:11:05.997Z,100.00
2022-07-28T06:13:39.055Z,100.00
2022-07-28T06:16:27.075Z,100.00
2022-07-28T06:19:00.073Z,100.00
2022-07-28T06:21:46.999Z,100.00
2022-07-28T06:24:26.998Z,100.00
2022-07-28T06:27:13.985Z,100.00
2022-07-28T06:29:54.017Z,100.00
2022-07-28T06:32:47.982Z,98.22
2022-07-28T06:35:48.234Z,100.00
2022-07-28T06:38:39.008Z,99.54
2022-07-28T06:41:12.091Z,98.29
2022-07-28T06:43:59.009Z,98.57
2022-07-28T06:46:42.052Z,100.00
2022-07-28T06:49:29.082Z,99.41
2022-07-28T06:52:03.081Z,97.96
2022-07-28T06:54:50.074Z,96.97
2022-07-28T06:57:33.635Z,97.35
2022-07-28T07:00:28.133Z,98.52
2022-07-28T07:03:15.010Z,99.29
2022-07-28T07:05:49.007Z,98.52
2022-07-28T07:08:38.031Z,97.80
2022-07-28T07:11:18.020Z,96.77
2022-07-28T07:14:12.056Z,98.11
2022-07-28T07:17:06.020Z,97.95
2022-07-28T07:19:53.053Z,98.56
2022-07-28T07:22:47.036Z,98.93
2022-07-28T07:25:41.009Z,97.26
2022-07-28T07:28:28.047Z,98.58
2022-07-28T07:31:01.188Z,97.30
2022-07-28T07:33:48.058Z,97.51
2022-07-28T07:36:21.578Z,99.14
2022-07-28T07:39:08.017Z,96.31
2022-07-28T07:41:48.049Z,94.33
2022-07-28T07:44:35.021Z,95.35
2022-07-28T07:47:08.184Z,95.95
2022-07-28T07:49:56.042Z,95.84
2022-07-28T07:52:43.189Z,94.73
2022-07-28T07:55:34.451Z,93.74
2022-07-28T07:58:12.160Z,94.76
2022-07-28T08:01:00.085Z,93.38
2022-07-28T08:03:33.152Z,93.04
2022-07-28T08:06:26.506Z,92.39
2022-07-28T08:09:01.123Z,91.29
2022-07-28T08:11:48.066Z,92.22
2022-07-28T08:14:21.346Z,92.05
2022-07-28T08:17:08.046Z,92.94
2022-07-28T08:19:41.643Z,93.93
2022-07-28T08:22:35.070Z,92.78
2022-07-28T08:25:29.097Z,93.16
2022-07-28T08:28:23.073Z,92.71
2022-07-28T08:31:18.099Z,90.69
2022-07-28T08:34:31.201Z,90.05
2022-07-28T08:37:19.065Z,89.39
2022-07-28T08:39:52.153Z,89.70
2022-07-28T08:42:50.071Z,88.33
2022-07-28T08:45:32.506Z,89.59
2022-07-28T08:48:32.074Z,89.25
2022-07-28T08:51:19.150Z,89.39
2022-07-28T08:53:53.185Z,88.09
2022-07-28T08:56:41.085Z,87.35
2022-07-28T08:59:22.205Z,88.20
2022-07-28T09:02:09.163Z,88.77
2022-07-28T09:04:42.431Z,87.57
2022-07-28T09:07:34.101Z,88.62
2022-07-28T09:10:07.364Z,88.66
2022-07-28T09:12:54.202Z,87.30
2022-07-28T09:15:27.376Z,87.45
2022-07-28T09:18:14.127Z,87.83
2022-07-28T09:20:50.173Z,87.48
2022-07-28T09:23:55.123Z,88.52
2022-07-28T09:26:38.127Z,87.93
2022-07-28T09:29:38.087Z,88.04
2022-07-28T09:32:27.189Z,87.89
2022-07-28T09:35:00.179Z,86.25
2022-07-28T09:37:47.114Z,87.08
2022-07-28T09:40:28.104Z,85.67
2022-07-28T09:43:23.125Z,86.64
2022-07-28T09:46:17.290Z,87.16
2022-07-28T09:48:56.559Z,87.77
2022-07-28T09:51:43.118Z,86.84
2022-07-28T09:54:28.113Z,85.57
2022-07-28T09:57:24.208Z,86.04
2022-07-28T10:00:19.115Z,87.64
2022-07-28T10:02:56.298Z,87.16
2022-07-28T10:05:50.788Z,87.06
2022-07-28T10:08:45.247Z,86.56
2022-07-28T10:11:39.315Z,85.92
2022-07-28T10:14:23.164Z,85.33
2022-07-28T10:17:19.134Z,85.14
2022-07-28T10:20:08.124Z,86.09
2022-07-28T10:22:49.145Z,85.48
2022-07-28T10:25:41.132Z,85.73
2022-07-28T10:28:32.236Z,84.56
2022-07-28T10:31:24.214Z,85.86
2022-07-28T10:34:00.593Z,85.92
2022-07-28T10:36:49.151Z,83.88
2022-07-28T10:39:26.463Z,83.48
2022-07-28T10:42:17.147Z,84.39
2022-07-28T10:44:51.292Z,84.50
2022-07-28T10:47:38.147Z,83.25
2022-07-28T10:50:12.227Z,85.51
2022-07-28T10:52:59.179Z,86.26
2022-07-28T10:55:57.170Z,85.13
2022-07-28T10:59:20.218Z,83.76
2022-07-28T11:02:09.263Z,83.68
2022-07-28T11:04:52.403Z,85.00
2022-07-28T11:07:46.172Z,82.80
2022-07-28T11:10:31.168Z,83.90
2022-07-28T11:13:51.559Z,83.27
2022-07-28T11:16:41.233Z,82.96
2022-07-28T11:19:40.123Z,83.23
2022-07-28T11:22:41.258Z,84.05
2022-07-28T11:25:35.178Z,84.40
2022-07-28T11:28:22.300Z,83.17
2022-07-28T11:30:58.338Z,84.82
2022-07-28T11:34:01.186Z,84.97
2022-07-28T11:37:15.323Z,82.62
2022-07-28T11:40:03.167Z,81.72
2022-07-28T11:42:38.321Z,83.39
2022-07-28T11:45:38.451Z,82.54
2022-07-28T11:48:23.486Z,81.38
2022-07-28T11:51:10.171Z,84.25
2022-07-28T11:54:04.214Z,84.14
2022-07-28T11:56:58.237Z,84.00
2022-07-28T11:59:54.276Z,85.11
2022-07-28T12:02:31.763Z,82.25
2022-07-28T12:05:20.226Z,82.32
2022-07-28T12:07:58.550Z,83.58
2022-07-28T12:10:54.955Z,81.51
2022-07-28T12:13:33.337Z,82.69
2022-07-28T12:16:21.298Z,81.04
2022-07-28T12:19:10.050Z,80.72
2022-07-28T12:22:06.220Z,80.88
2022-07-28T12:25:00.216Z,81.11
2022-07-28T12:27:47.256Z,82.25
2022-07-28T12:30:40.225Z,81.43
2022-07-28T12:33:39.266Z,81.91
2022-07-28T12:36:28.224Z,82.80
2022-07-28T12:39:02.420Z,81.89
2022-07-28T12:41:49.255Z,82.24
2022-07-28T12:44:22.384Z,83.18
2022-07-28T12:47:11.258Z,81.34
2022-07-28T12:49:46.411Z,81.96
2022-07-28T12:52:33.258Z,80.80
2022-07-28T12:55:06.720Z,82.09
2022-07-28T12:57:54.223Z,79.88
2022-07-28T13:00:38.395Z,81.62
2022-07-28T13:03:31.257Z,83.50
2022-07-28T13:06:22.252Z,82.18
2022-07-28T13:09:15.122Z,84.19
2022-07-28T13:11:56.348Z,82.44
2022-07-28T13:14:54.234Z,83.41
2022-07-28T13:18:05.256Z,83.04
2022-07-28T13:21:05.259Z,83.75
2022-07-28T13:23:52.247Z,84.51
2022-07-28T13:26:25.343Z,84.78
2022-07-28T13:29:14.258Z,85.04
2022-07-28T13:31:47.486Z,84.76
2022-07-28T13:34:34.248Z,85.59
2022-07-28T13:37:07.452Z,85.14
2022-07-28T13:39:54.906Z,83.91
2022-07-28T13:42:37.259Z,85.67
2022-07-28T13:45:31.316Z,82.90
2022-07-28T13:48:18.247Z,84.57
2022-07-28T13:50:53.355Z,84.65
2022-07-28T13:53:44.251Z,82.09
2022-07-28T13:56:17.350Z,82.86
2022-07-28T13:59:16.252Z,83.17
2022-07-28T14:01:49.476Z,82.16
2022-07-28T14:04:36.305Z,83.81
2022-07-28T14:07:13.357Z,83.32
2022-07-28T14:10:07.289Z,82.69
2022-07-28T14:12:41.423Z,82.35
2022-07-28T14:15:32.277Z,82.52
2022-07-28T14:18:12.351Z,84.00
2022-07-28T14:21:09.270Z,84.02
2022-07-28T14:23:56.332Z,82.34
2022-07-28T14:26:36.632Z,81.51
2022-07-28T14:29:25.147Z,82.57
2022-07-28T14:32:01.404Z,79.90
2022-07-28T14:34:48.285Z,81.53
2022-07-28T14:37:21.403Z,81.36
2022-07-28T14:40:08.330Z,82.46
2022-07-28T14:42:41.396Z,82.87
2022-07-28T14:45:28.325Z,82.79
2022-07-28T14:48:01.401Z,82.17
2022-07-28T14:50:48.341Z,81.95
2022-07-28T14:53:22.284Z,82.04
2022-07-28T14:56:02.336Z,82.66
2022-07-28T14:58:42.430Z,82.43
2022-07-28T15:01:22.374Z,82.12
2022-07-28T15:04:02.417Z,82.55
2022-07-28T15:06:42.331Z,82.33
2022-07-28T15:09:22.335Z,82.21
2022-07-28T15:12:02.369Z,83.48
2022-07-28T15:14:56.322Z,83.53
2022-07-28T15:17:50.335Z,83.01
2022-07-28T15:20:38.335Z,83.41
2022-07-28T15:23:13.907Z,83.25
2022-07-28T15:26:00.339Z,82.04
2022-07-28T15:28:43.293Z,82.90
2022-07-28T15:31:37.424Z,83.57
2022-07-28T15:34:26.325Z,83.85
2022-07-28T15:37:00.997Z,82.33
2022-07-28T15:39:47.363Z,81.77
2022-07-28T15:42:20.447Z,82.18
2022-07-28T15:45:07.359Z,82.54
2022-07-28T15:47:40.455Z,82.09
2022-07-28T15:50:27.359Z,80.60
2022-07-28T15:53:00.406Z,82.15
2022-07-28T15:55:51.292Z,80.80
2022-07-28T15:58:33.357Z,81.95
2022-07-28T16:01:27.401Z,80.58
2022-07-28T16:04:14.690Z,81.29
2022-07-28T16:07:06.891Z,80.59
2022-07-28T16:09:53.352Z,81.02
2022-07-28T16:12:33.403Z,82.76
2022-07-28T16:15:27.403Z,83.20
2022-07-28T16:18:21.358Z,83.69
2022-07-28T16:21:15.407Z,83.73
2022-07-28T16:24:02.374Z,84.02
2022-07-28T16:26:36.545Z,84.67
2022-07-28T16:29:23.404Z,84.20
2022-07-28T16:32:03.389Z,85.31
2022-07-28T16:34:58.393Z,83.31
2022-07-28T16:37:53.397Z,83.77
2022-07-28T16:40:47.409Z,84.87
2022-07-28T16:43:34.377Z,85.02
2022-07-28T16:46:07.527Z,84.65
2022-07-28T16:48:54.439Z,84.35
2022-07-28T16:51:27.431Z,85.56
2022-07-28T16:54:14.785Z,85.26
2022-07-28T16:56:48.462Z,85.88
2022-07-28T16:59:37.670Z,85.83
2022-07-28T17:02:28.413Z,85.46
2022-07-28T17:05:19.422Z,86.50
2022-07-28T17:07:52.589Z,85.41
2022-07-28T17:10:39.403Z,85.38
2022-07-28T17:13:15.510Z,85.84
2022-07-28T17:16:02.470Z,84.76
2022-07-28T17:18:35.503Z,85.85
2022-07-28T17:21:30.423Z,84.23
2022-07-28T17:24:18.950Z,86.13
2022-07-28T17:30:00.408Z,86.08
2022-07-28T17:32:33.953Z,86.77
2022-07-28T17:35:31.434Z,86.53
2022-07-28T17:38:08.349Z,86.79
2022-07-28T17:40:57.407Z,86.06
2022-07-28T17:43:32.378Z,85.50
2022-07-28T17:46:27.441Z,86.61
2022-07-28T17:49:23.461Z,86.82
2022-07-28T17:52:14.434Z,86.79
2022-07-28T17:55:13.412Z,86.58
2022-07-28T17:58:03.419Z,87.01
2022-07-28T18:00:44.443Z,86.59
2022-07-28T18:03:59.468Z,87.31
2022-07-28T18:06:48.429Z,88.10
2022-07-28T18:09:28.439Z,87.65
2022-07-28T18:12:23.423Z,87.53
2022-07-28T18:15:14.497Z,87.49
2022-07-28T18:17:55.904Z,87.27
2022-07-28T18:20:49.428Z,87.81
2022-07-28T18:23:43.411Z,88.60
2022-07-28T18:26:30.444Z,88.84
2022-07-28T18:29:03.512Z,88.56
2022-07-28T18:31:50.538Z,88.24
2022-07-28T18:34:24.947Z,88.71
2022-07-28T18:37:12.429Z,89.36
2022-07-28T18:39:53.411Z,89.64
2022-07-28T18:42:40.439Z,89.61
2022-07-28T18:45:21.434Z,89.73
2022-07-28T18:48:17.423Z,89.96
2022-07-28T18:51:11.441Z,89.51
2022-07-28T18:53:58.441Z,90.34
2022-07-28T18:56:38.447Z,90.72
2022-07-28T18:59:25.498Z,91.44
2022-07-28T19:01:58.653Z,91.76
2022-07-28T19:04:45.508Z,92.69
2022-07-28T19:07:26.443Z,92.04
2022-07-28T19:10:20.496Z,92.46
2022-07-28T19:13:12.291Z,92.97
2022-07-28T19:15:47.560Z,92.90
2022-07-28T19:18:34.477Z,92.36
2022-07-28T19:21:08.273Z,92.14
2022-07-28T19:23:55.507Z,92.21
2022-07-28T19:26:28.536Z,92.01
2022-07-28T19:29:15.509Z,93.48
2022-07-28T19:31:48.581Z,93.52
2022-07-28T19:34:36.477Z,93.32
2022-07-28T19:37:09.556Z,94.45
2022-07-28T19:39:56.479Z,93.89
2022-07-28T19:42:38.470Z,94.30
2022-07-28T19:45:12.589Z,93.68
2022-07-28T19:48:01.494Z,94.43
2022-07-28T19:50:45.969Z,94.60
2022-07-28T19:53:36.868Z,94.75
2022-07-28T19:56:18.472Z,95.14
2022-07-28T19:59:12.480Z,95.25
2022-07-28T20:02:06.550Z,94.60
2022-07-28T20:04:53.492Z,94.48
2022-07-28T20:07:26.548Z,95.43
2022-07-28T20:10:13.502Z,94.59
2022-07-28T20:12:47.496Z,95.24
2022-07-28T20:15:34.482Z,95.00
2022-07-28T20:18:07.551Z,95.19
2022-07-28T20:20:55.501Z,95.95
2022-07-28T20:23:28.563Z,95.52
2022-07-28T20:26:16.488Z,95.85
2022-07-28T20:28:49.742Z,95.93
2022-07-28T20:31:37.497Z,95.56
2022-07-28T20:34:19.633Z,96.10
2022-07-28T20:37:18.942Z,95.79
2022-07-28T20:40:20.553Z,96.44
2022-07-28T20:42:53.628Z,96.51
2022-07-28T20:45:40.530Z,96.80
2022-07-28T20:48:14.441Z,97.01
2022-07-28T20:51:01.494Z,97.27
2022-07-28T20:53:34.635Z,97.22
2022-07-28T20:56:21.524Z,97.32
2022-07-28T20:58:54.624Z,97.96
2022-07-28T21:01:41.564Z,98.32
2022-07-28T21:04:22.506Z,98.14
2022-07-28T21:08:00.603Z,98.09
2022-07-28T21:10:32.513Z,98.22
2022-07-28T21:13:19.540Z,98.28
2022-07-28T21:15:52.604Z,98.89
2022-07-28T21:18:39.520Z,98.99
2022-07-28T21:21:12.633Z,98.93
2022-07-28T21:23:59.516Z,98.70
2022-07-28T21:26:32.646Z,99.00
2022-07-28T21:32:05.457Z,98.81
2022-07-28T21:34:59.615Z,99.15
2022-07-28T21:37:46.522Z,98.62
2022-07-28T21:40:19.668Z,98.73
2022-07-28T21:43:06.519Z,98.75
2022-07-28T21:45:40.700Z,99.21
2022-07-28T21:48:30.596Z,99.27
2022-07-28T21:51:16.405Z,99.71
2022-07-28T21:54:06.534Z,99.60
2022-07-28T21:56:46.620Z,99.77
2022-07-28T21:59:33.652Z,99.74
2022-07-28T22:02:06.647Z,99.33
2022-07-28T22:04:54.556Z,99.81
2022-07-28T22:07:27.696Z,99.43
2022-07-28T22:10:14.576Z,99.76
2022-07-28T22:12:54.622Z,99.55
2022-07-28T22:15:48.718Z,100.00
2022-07-28T22:18:42.605Z,99.63
2022-07-28T22:21:29.567Z,99.86
2022-07-28T22:24:02.700Z,100.00
2022-07-28T22:26:49.595Z,100.00
2022-07-28T22:29:22.774Z,100.00
2022-07-28T22:32:10.626Z,100.00
2022-07-28T22:34:43.627Z,100.00
2022-07-28T22:37:30.565Z,100.00
2022-07-28T22:40:03.729Z,100.00
2022-07-28T22:42:54.573Z,100.00
2022-07-28T22:45:49.770Z,100.00
2022-07-28T22:48:34.609Z,100.00
2022-07-28T22:51:07.695Z,100.00
2022-07-28T22:53:54.569Z,100.00
2022-07-28T22:56:37.317Z,100.00
2022-07-28T22:59:37.239Z,100.00
2022-07-28T23:02:26.581Z,100.00
2022-07-28T23:04:59.712Z,100.00
2022-07-28T23:07:48.585Z,100.00
2022-07-28T23:10:25.710Z,100.00
2022-07-28T23:13:12.586Z,100.00
2022-07-28T23:15:45.682Z,100.00
2022-07-28T23:18:32.607Z,100.00
2022-07-28T23:21:05.694Z,100.00
2022-07-28T23:23:52.594Z,100.00
2022-07-28T23:26:25.664Z,100.00
2022-07-28T23:29:12.575Z,100.00
2022-07-28T23:31:45.713Z,100.00
2022-07-28T23:34:32.619Z,100.00
2022-07-28T23:37:12.599Z,100.00
2022-07-28T23:39:59.596Z,100.00
2022-07-28T23:42:39.583Z,100.00
2022-07-28T23:45:33.602Z,100.00
2022-07-28T23:48:20.602Z,100.00
2022-07-28T23:51:00.605Z,100.00
2022-07-28T23:53:56.528Z,100.00
2022-07-28T23:56:43.691Z,100.00
2022-07-28T23:59:23.608Z,100.00
